sensor_id;sensor_type;location;lat;lon;timestamp;temperature;humidity
12309;DHT22;6217;48.150;17.142;2022-11-20T00:13:56;4.20;77.00
12309;DHT22;6217;48.150;17.142;2022-11-20T00:18:27;4.20;77.00
12309;DHT22;6217;48.150;17.142;2022-11-20T06:22:15;4.80;87.00
12309;DHT22;6217;48.150;17.142;2022-11-20T06:56:56;5.00;87.70
12309;DHT22;6217;48.150;17.142;2022-11-20T07:47:44;5.20;89.70
12309;DHT22;6217;48.150;17.142;2022-11-20T08:04:58;5.60;89.80
12309;DHT22;6217;48.150;17.142;2022-11-20T08:09:05;5.60;90.00
12309;DHT22;6217;48.150;17.142;2022-11-20T08:13:13;5.40;90.20
12309;DHT22;6217;48.150;17.142;2022-11-20T08:17:39;5.40;90.50
12309;DHT22;6217;48.150;17.142;2022-11-20T08:21:50;5.60;90.50
12309;DHT22;6217;48.150;17.142;2022-11-20T08:26:12;5.60;90.60
12309;DHT22;6217;48.150;17.142;2022-11-20T08:30:18;5.60;90.60
12309;DHT22;6217;48.150;17.142;2022-11-20T08:34:24;5.80;90.50
12309;DHT22;6217;48.150;17.142;2022-11-20T08:38:37;5.90;90.40
12309;DHT22;6217;48.150;17.142;2022-11-20T08:42:50;5.80;90.40
12309;DHT22;6217;48.150;17.142;2022-11-20T08:47:23;6.00;90.40
12309;DHT22;6217;48.150;17.142;2022-11-20T08:51:36;6.10;90.50
12309;DHT22;6217;48.150;17.142;2022-11-20T08:55:43;6.20;90.40
12309;DHT22;6217;48.150;17.142;2022-11-20T09:00:13;6.20;90.30
12309;DHT22;6217;48.150;17.142;2022-11-20T09:15:37;6.60;90.10
12309;DHT22;6217;48.150;17.142;2022-11-20T10:47:24;6.90;89.60
12309;DHT22;6217;48.150;17.142;2022-11-20T13:19:36;7.60;90.00
12309;DHT22;6217;48.150;17.142;2022-11-20T13:42:45;8.00;89.20
12309;DHT22;6217;48.150;17.142;2022-11-20T13:47:28;7.80;89.60
12309;DHT22;6217;48.150;17.142;2022-11-20T13:51:48;8.00;89.80
12309;DHT22;6217;48.150;17.142;2022-11-20T13:56:05;8.20;89.60
12309;DHT22;6217;48.150;17.142;2022-11-20T14:00:26;8.40;89.40
12309;DHT22;6217;48.150;17.142;2022-11-20T14:04:46;8.50;89.10
12309;DHT22;6217;48.150;17.142;2022-11-20T14:08:56;8.50;88.80
12309;DHT22;6217;48.150;17.142;2022-11-20T14:13:29;8.40;89.10
12309;DHT22;6217;48.150;17.142;2022-11-20T14:17:36;8.30;89.40
12309;DHT22;6217;48.150;17.142;2022-11-20T14:22:20;8.30;89.50
12309;DHT22;6217;48.150;17.142;2022-11-20T14:31:52;8.00;89.90
12309;DHT22;6217;48.150;17.142;2022-11-20T14:35:59;8.00;90.10
12309;DHT22;6217;48.150;17.142;2022-11-20T14:40:32;7.90;90.30
12309;DHT22;6217;48.150;17.142;2022-11-20T14:44:42;7.90;90.30
12309;DHT22;6217;48.150;17.142;2022-11-20T14:48:56;7.90;90.20
12309;DHT22;6217;48.150;17.142;2022-11-20T14:58:26;7.70;90.30
12309;DHT22;6217;48.150;17.142;2022-11-20T15:02:51;7.50;90.40
12309;DHT22;6217;48.150;17.142;2022-11-20T15:07:26;7.40;90.60
12309;DHT22;6217;48.150;17.142;2022-11-20T15:11:49;7.30;90.60
12309;DHT22;6217;48.150;17.142;2022-11-20T15:16:01;7.20;90.70
12309;DHT22;6217;48.150;17.142;2022-11-20T15:20:15;7.20;90.80
12309;DHT22;6217;48.150;17.142;2022-11-20T15:24:25;7.20;90.80
12309;DHT22;6217;48.150;17.142;2022-11-20T15:29:00;7.10;90.90
12309;DHT22;6217;48.150;17.142;2022-11-20T15:33:27;7.20;90.90
12309;DHT22;6217;48.150;17.142;2022-11-20T15:37:34;7.20;90.80
12309;DHT22;6217;48.150;17.142;2022-11-20T15:41:45;7.00;90.80
12309;DHT22;6217;48.150;17.142;2022-11-20T15:46:22;6.80;91.10
12309;DHT22;6217;48.150;17.142;2022-11-20T15:55:52;6.70;91.30
12309;DHT22;6217;48.150;17.142;2022-11-20T16:00:06;6.60;91.40
12309;DHT22;6217;48.150;17.142;2022-11-20T16:04:17;6.40;91.40
12309;DHT22;6217;48.150;17.142;2022-11-20T16:08:36;6.40;91.50
12309;DHT22;6217;48.150;17.142;2022-11-20T16:24:12;6.20;91.80
12309;DHT22;6217;48.150;17.142;2022-11-20T16:29:03;6.20;91.70
12309;DHT22;6217;48.150;17.142;2022-11-20T16:39:04;6.10;91.90
12309;DHT22;6217;48.150;17.142;2022-11-20T16:44:34;6.10;92.00
12309;DHT22;6217;48.150;17.142;2022-11-20T16:49:11;6.20;91.90
12309;DHT22;6217;48.150;17.142;2022-11-20T16:53:36;6.20;91.80
12309;DHT22;6217;48.150;17.142;2022-11-20T16:58:53;6.30;91.90
12309;DHT22;6217;48.150;17.142;2022-11-20T17:04:17;6.30;91.90
12309;DHT22;6217;48.150;17.142;2022-11-20T17:09:38;6.30;92.00
12309;DHT22;6217;48.150;17.142;2022-11-20T17:14:39;6.20;92.10
12309;DHT22;6217;48.150;17.142;2022-11-20T17:19:47;6.10;92.10
12309;DHT22;6217;48.150;17.142;2022-11-20T17:24:13;6.00;92.20
12309;DHT22;6217;48.150;17.142;2022-11-20T17:33:59;6.00;92.40
12309;DHT22;6217;48.150;17.142;2022-11-20T17:38:23;6.00;92.40
12309;DHT22;6217;48.150;17.142;2022-11-20T18:05:54;6.40;92.40
12309;DHT22;6217;48.150;17.142;2022-11-20T18:11:45;6.20;92.50
12309;DHT22;6217;48.150;17.142;2022-11-20T18:15:54;6.20;92.70
12309;DHT22;6217;48.150;17.142;2022-11-20T18:21:11;6.20;92.60
12309;DHT22;6217;48.150;17.142;2022-11-20T18:25:59;6.30;92.60
12309;DHT22;6217;48.150;17.142;2022-11-20T18:30:26;6.40;92.70
12309;DHT22;6217;48.150;17.142;2022-11-20T18:34:55;6.50;92.50
12309;DHT22;6217;48.150;17.142;2022-11-20T18:40:35;6.50;92.70
12309;DHT22;6217;48.150;17.142;2022-11-20T18:50:44;6.70;92.80
12309;DHT22;6217;48.150;17.142;2022-11-20T19:01:16;6.60;92.90
12309;DHT22;6217;48.150;17.142;2022-11-20T19:05:29;6.70;92.90
12309;DHT22;6217;48.150;17.142;2022-11-20T19:10:11;6.60;92.90
12309;DHT22;6217;48.150;17.142;2022-11-20T19:36:49;6.50;93.40
12309;DHT22;6217;48.150;17.142;2022-11-20T19:41:22;6.50;93.50
12309;DHT22;6217;48.150;17.142;2022-11-20T19:52:21;6.60;93.60
12309;DHT22;6217;48.150;17.142;2022-11-20T19:56:40;6.70;93.40
12309;DHT22;6217;48.150;17.142;2022-11-20T20:01:14;6.80;93.40
12309;DHT22;6217;48.150;17.142;2022-11-20T20:12:30;6.90;93.50
12309;DHT22;6217;48.150;17.142;2022-11-20T20:29:56;6.90;93.50
12309;DHT22;6217;48.150;17.142;2022-11-20T20:46:06;6.80;93.90
12309;DHT22;6217;48.150;17.142;2022-11-20T20:50:59;6.90;93.80
12309;DHT22;6217;48.150;17.142;2022-11-20T20:55:41;7.00;93.80
12309;DHT22;6217;48.150;17.142;2022-11-20T21:00:35;7.00;93.70
12309;DHT22;6217;48.150;17.142;2022-11-20T21:05:14;6.90;93.60
12309;DHT22;6217;48.150;17.142;2022-11-20T21:28:52;6.10;94.50
12309;DHT22;6217;48.150;17.142;2022-11-20T21:56:50;6.40;94.40
12309;DHT22;6217;48.150;17.142;2022-11-20T22:07:55;6.70;94.20
12309;DHT22;6217;48.150;17.142;2022-11-20T22:20:00;6.40;94.40
12309;DHT22;6217;48.150;17.142;2022-11-20T22:29:01;6.50;94.40
12309;DHT22;6217;48.150;17.142;2022-11-20T22:33:47;6.50;94.40
12309;DHT22;6217;48.150;17.142;2022-11-20T22:38:33;6.50;94.60
12309;DHT22;6217;48.150;17.142;2022-11-20T22:43:22;6.40;94.50
12309;DHT22;6217;48.150;17.142;2022-11-20T22:58:06;6.30;94.70
12309;DHT22;6217;48.150;17.142;2022-11-20T23:02:47;6.20;94.80
12309;DHT22;6217;48.150;17.142;2022-11-20T23:33:59;6.30;94.60
12309;DHT22;6217;48.150;17.142;2022-11-20T23:48:38;6.50;94.60
